KCKN/CKN METAR and TAF weather

Enter ICAO airport designator
Station Type Date Time Source
KCKN METAR 2020/03/29 11:16 UTC NOAA

KCKN 291116Z AUTO 02007KT 10SM CLR M03/M05 A2983 RMK AO2


Station Type Date Time Source
KCKN Decoded METAR 2020/03/29 11:16 UTC NOAA

Crookston Municipal Field, MN, United States (KCKN) 47-51N 096-37W
Mar 29, 2020 - 07:16 AM EDT / 2020.03.29 1116 UTC
Wind: from the NNE (020 degrees) at 8 MPH (7 KT):0
Visibility: 10 mile(s):0
Sky conditions: clear
Temperature: 26 F (-3 C)
Windchill: 17 F (-8 C):1
Dew Point: 23 F (-5 C)
Relative Humidity: 86%
Pressure (altimeter): 29.83 in. Hg (1010 hPa)
ob: KCKN 291116Z AUTO 02007KT 10SM CLR M03/M05 A2983 RMK AO2
cycle: 11

Station Type Date Time Source
KCKN TAF UTC NOAA

Error!

Example: see airport list